sensor_id;sensor_type;location;lat;lon;timestamp;P1;durP1;ratioP1;P2;durP2;ratioP2
10705;SDS011;5404;42.656;23.336;2023-02-22T00:00:12;37.33;;;13.05;;
10705;SDS011;5404;42.656;23.336;2023-02-22T00:02:48;30.92;;;13.90;;
10705;SDS011;5404;42.656;23.336;2023-02-22T00:05:14;24.77;;;12.63;;
10705;SDS011;5404;42.656;23.336;2023-02-22T00:07:44;27.60;;;11.73;;
10705;SDS011;5404;42.656;23.336;2023-02-22T00:10:14;30.05;;;9.95;;
10705;SDS011;5404;42.656;23.336;2023-02-22T00:12:44;22.90;;;10.82;;
10705;SDS011;5404;42.656;23.336;2023-02-22T00:15:14;28.48;;;10.32;;
10705;SDS011;5404;42.656;23.336;2023-02-22T00:17:41;23.73;;;9.20;;
10705;SDS011;5404;42.656;23.336;2023-02-22T00:20:08;24.63;;;10.93;;
10705;SDS011;5404;42.656;23.336;2023-02-22T00:22:46;27.30;;;10.40;;
10705;SDS011;5404;42.656;23.336;2023-02-22T00:25:14;29.25;;;10.63;;
10705;SDS011;5404;42.656;23.336;2023-02-22T00:27:41;30.02;;;9.95;;
10705;SDS011;5404;42.656;23.336;2023-02-22T00:30:07;29.45;;;9.60;;
10705;SDS011;5404;42.656;23.336;2023-02-22T00:32:37;26.10;;;10.57;;
10705;SDS011;5404;42.656;23.336;2023-02-22T00:35:03;34.28;;;10.85;;
10705;SDS011;5404;42.656;23.336;2023-02-22T00:37:32;21.25;;;10.05;;
10705;SDS011;5404;42.656;23.336;2023-02-22T00:39:59;26.73;;;9.63;;
10705;SDS011;5404;42.656;23.336;2023-02-22T00:42:26;26.02;;;10.48;;
10705;SDS011;5404;42.656;23.336;2023-02-22T00:44:51;28.98;;;11.02;;
10705;SDS011;5404;42.656;23.336;2023-02-22T00:47:17;22.33;;;9.90;;
10705;SDS011;5404;42.656;23.336;2023-02-22T00:49:42;24.48;;;9.75;;
10705;SDS011;5404;42.656;23.336;2023-02-22T00:52:08;31.25;;;11.20;;
10705;SDS011;5404;42.656;23.336;2023-02-22T00:54:34;30.55;;;12.77;;
10705;SDS011;5404;42.656;23.336;2023-02-22T00:56:59;28.88;;;9.90;;
10705;SDS011;5404;42.656;23.336;2023-02-22T00:59:25;29.90;;;10.55;;
10705;SDS011;5404;42.656;23.336;2023-02-22T01:01:51;25.00;;;9.70;;
10705;SDS011;5404;42.656;23.336;2023-02-22T01:04:17;20.00;;;8.57;;
10705;SDS011;5404;42.656;23.336;2023-02-22T01:06:42;20.30;;;8.57;;
10705;SDS011;5404;42.656;23.336;2023-02-22T01:09:08;17.27;;;8.30;;
10705;SDS011;5404;42.656;23.336;2023-02-22T01:11:34;16.23;;;7.30;;
10705;SDS011;5404;42.656;23.336;2023-02-22T01:13:59;14.48;;;7.22;;
10705;SDS011;5404;42.656;23.336;2023-02-22T01:16:25;17.00;;;7.38;;
10705;SDS011;5404;42.656;23.336;2023-02-22T01:18:50;27.55;;;8.32;;
10705;SDS011;5404;42.656;23.336;2023-02-22T01:21:16;22.58;;;9.63;;
10705;SDS011;5404;42.656;23.336;2023-02-22T01:23:43;18.65;;;8.93;;
10705;SDS011;5404;42.656;23.336;2023-02-22T01:26:09;21.30;;;9.32;;
10705;SDS011;5404;42.656;23.336;2023-02-22T01:28:35;23.45;;;9.25;;
10705;SDS011;5404;42.656;23.336;2023-02-22T01:31:02;23.92;;;8.90;;
10705;SDS011;5404;42.656;23.336;2023-02-22T01:33:27;27.13;;;9.23;;
10705;SDS011;5404;42.656;23.336;2023-02-22T01:35:53;27.67;;;9.82;;
10705;SDS011;5404;42.656;23.336;2023-02-22T01:38:18;23.20;;;10.05;;
10705;SDS011;5404;42.656;23.336;2023-02-22T01:40:46;27.05;;;11.00;;
10705;SDS011;5404;42.656;23.336;2023-02-22T01:43:23;40.60;;;15.35;;
10705;SDS011;5404;42.656;23.336;2023-02-22T01:45:54;32.30;;;14.60;;
10705;SDS011;5404;42.656;23.336;2023-02-22T01:48:37;32.13;;;13.30;;
10705;SDS011;5404;42.656;23.336;2023-02-22T01:51:30;28.42;;;11.75;;
10705;SDS011;5404;42.656;23.336;2023-02-22T01:59:48;28.83;;;11.95;;
10705;SDS011;5404;42.656;23.336;2023-02-22T02:02:18;24.35;;;11.45;;
10705;SDS011;5404;42.656;23.336;2023-02-22T02:04:45;24.48;;;10.40;;
10705;SDS011;5404;42.656;23.336;2023-02-22T02:07:12;22.73;;;8.98;;
10705;SDS011;5404;42.656;23.336;2023-02-22T02:09:46;25.60;;;8.80;;
10705;SDS011;5404;42.656;23.336;2023-02-22T02:12:40;22.83;;;8.82;;
10705;SDS011;5404;42.656;23.336;2023-02-22T02:17:49;23.45;;;9.23;;
10705;SDS011;5404;42.656;23.336;2023-02-22T02:36:33;24.27;;;10.43;;
10705;SDS011;5404;42.656;23.336;2023-02-22T02:39:28;27.05;;;10.00;;
10705;SDS011;5404;42.656;23.336;2023-02-22T02:41:59;21.58;;;9.43;;
10705;SDS011;5404;42.656;23.336;2023-02-22T02:44:30;23.67;;;8.48;;
10705;SDS011;5404;42.656;23.336;2023-02-22T02:47:14;17.50;;;7.55;;
10705;SDS011;5404;42.656;23.336;2023-02-22T02:49:50;18.33;;;7.47;;
10705;SDS011;5404;42.656;23.336;2023-02-22T02:52:20;15.13;;;7.00;;
10705;SDS011;5404;42.656;23.336;2023-02-22T02:54:49;11.00;;;6.05;;
10705;SDS011;5404;42.656;23.336;2023-02-22T02:57:15;15.00;;;7.22;;
10705;SDS011;5404;42.656;23.336;2023-02-22T02:59:40;14.38;;;6.97;;
10705;SDS011;5404;42.656;23.336;2023-02-22T03:20:52;14.93;;;6.25;;
10705;SDS011;5404;42.656;23.336;2023-02-22T03:23:36;11.48;;;6.50;;
10705;SDS011;5404;42.656;23.336;2023-02-22T03:26:14;16.60;;;6.60;;
10705;SDS011;5404;42.656;23.336;2023-02-22T03:28:48;9.82;;;5.28;;
10705;SDS011;5404;42.656;23.336;2023-02-22T03:33:56;13.57;;;5.38;;
10705;SDS011;5404;42.656;23.336;2023-02-22T03:36:29;12.93;;;5.65;;
10705;SDS011;5404;42.656;23.336;2023-02-22T03:39:03;11.48;;;5.63;;
10705;SDS011;5404;42.656;23.336;2023-02-22T03:41:31;13.55;;;4.90;;
10705;SDS011;5404;42.656;23.336;2023-02-22T03:44:06;11.40;;;5.25;;
10705;SDS011;5404;42.656;23.336;2023-02-22T03:46:34;13.30;;;5.82;;
10705;SDS011;5404;42.656;23.336;2023-02-22T03:49:07;18.13;;;5.72;;
10705;SDS011;5404;42.656;23.336;2023-02-22T03:51:36;12.55;;;6.35;;
10705;SDS011;5404;42.656;23.336;2023-02-22T03:54:03;10.00;;;5.20;;
10705;SDS011;5404;42.656;23.336;2023-02-22T03:56:32;14.45;;;6.38;;
10705;SDS011;5404;42.656;23.336;2023-02-22T03:59:06;10.85;;;5.82;;
10705;SDS011;5404;42.656;23.336;2023-02-22T04:01:34;15.77;;;5.80;;
10705;SDS011;5404;42.656;23.336;2023-02-22T04:04:00;10.30;;;5.20;;
10705;SDS011;5404;42.656;23.336;2023-02-22T04:06:26;13.52;;;6.40;;
10705;SDS011;5404;42.656;23.336;2023-02-22T04:08:52;12.35;;;5.60;;
10705;SDS011;5404;42.656;23.336;2023-02-22T04:11:17;8.27;;;4.28;;
10705;SDS011;5404;42.656;23.336;2023-02-22T04:13:43;10.07;;;5.22;;
10705;SDS011;5404;42.656;23.336;2023-02-22T04:16:08;19.90;;;7.90;;
10705;SDS011;5404;42.656;23.336;2023-02-22T04:18:34;20.67;;;7.55;;
10705;SDS011;5404;42.656;23.336;2023-02-22T04:20:59;28.50;;;11.23;;
10705;SDS011;5404;42.656;23.336;2023-02-22T04:23:24;37.53;;;11.98;;
10705;SDS011;5404;42.656;23.336;2023-02-22T04:25:51;27.73;;;10.23;;
10705;SDS011;5404;42.656;23.336;2023-02-22T04:28:17;27.42;;;12.57;;
10705;SDS011;5404;42.656;23.336;2023-02-22T04:30:44;29.95;;;10.23;;
10705;SDS011;5404;42.656;23.336;2023-02-22T04:33:10;26.52;;;10.32;;
10705;SDS011;5404;42.656;23.336;2023-02-22T04:35:35;23.92;;;10.85;;
10705;SDS011;5404;42.656;23.336;2023-02-22T04:38:01;31.33;;;13.57;;
10705;SDS011;5404;42.656;23.336;2023-02-22T04:40:28;25.85;;;9.50;;
10705;SDS011;5404;42.656;23.336;2023-02-22T04:42:54;22.35;;;9.77;;
10705;SDS011;5404;42.656;23.336;2023-02-22T04:45:19;29.02;;;10.23;;
10705;SDS011;5404;42.656;23.336;2023-02-22T04:47:45;23.80;;;10.27;;
10705;SDS011;5404;42.656;23.336;2023-02-22T04:50:11;21.25;;;10.38;;
10705;SDS011;5404;42.656;23.336;2023-02-22T04:52:37;36.72;;;14.27;;
10705;SDS011;5404;42.656;23.336;2023-02-22T04:55:03;27.50;;;11.50;;
10705;SDS011;5404;42.656;23.336;2023-02-22T04:57:29;51.08;;;23.75;;
10705;SDS011;5404;42.656;23.336;2023-02-22T04:59:55;25.80;;;11.70;;
10705;SDS011;5404;42.656;23.336;2023-02-22T05:02:20;24.83;;;12.18;;
10705;SDS011;5404;42.656;23.336;2023-02-22T05:04:46;33.45;;;16.08;;
10705;SDS011;5404;42.656;23.336;2023-02-22T05:07:11;26.35;;;13.05;;
10705;SDS011;5404;42.656;23.336;2023-02-22T05:09:37;30.85;;;11.77;;
10705;SDS011;5404;42.656;23.336;2023-02-22T05:12:02;31.50;;;11.52;;
10705;SDS011;5404;42.656;23.336;2023-02-22T05:14:28;29.00;;;16.45;;
10705;SDS011;5404;42.656;23.336;2023-02-22T05:16:55;28.05;;;14.00;;
10705;SDS011;5404;42.656;23.336;2023-02-22T05:19:21;46.70;;;11.80;;
10705;SDS011;5404;42.656;23.336;2023-02-22T05:21:47;30.23;;;10.52;;
10705;SDS011;5404;42.656;23.336;2023-02-22T05:24:13;26.20;;;11.02;;
10705;SDS011;5404;42.656;23.336;2023-02-22T05:26:38;28.52;;;10.95;;
10705;SDS011;5404;42.656;23.336;2023-02-22T05:29:04;19.20;;;9.40;;
10705;SDS011;5404;42.656;23.336;2023-02-22T05:31:30;26.35;;;9.82;;
10705;SDS011;5404;42.656;23.336;2023-02-22T05:33:55;29.33;;;11.43;;
10705;SDS011;5404;42.656;23.336;2023-02-22T05:36:22;32.35;;;11.60;;
10705;SDS011;5404;42.656;23.336;2023-02-22T05:38:48;32.47;;;12.15;;
10705;SDS011;5404;42.656;23.336;2023-02-22T05:41:13;32.58;;;11.15;;
10705;SDS011;5404;42.656;23.336;2023-02-22T05:43:39;29.02;;;11.57;;
10705;SDS011;5404;42.656;23.336;2023-02-22T05:46:05;27.27;;;12.50;;
10705;SDS011;5404;42.656;23.336;2023-02-22T05:48:31;31.23;;;12.32;;
10705;SDS011;5404;42.656;23.336;2023-02-22T05:50:57;32.95;;;12.13;;
10705;SDS011;5404;42.656;23.336;2023-02-22T05:53:23;25.42;;;11.70;;
10705;SDS011;5404;42.656;23.336;2023-02-22T05:55:49;28.33;;;12.60;;
10705;SDS011;5404;42.656;23.336;2023-02-22T05:58:15;33.63;;;11.65;;
10705;SDS011;5404;42.656;23.336;2023-02-22T06:00:40;33.60;;;12.77;;
10705;SDS011;5404;42.656;23.336;2023-02-22T06:03:07;34.78;;;12.52;;
10705;SDS011;5404;42.656;23.336;2023-02-22T06:05:34;36.70;;;12.75;;
10705;SDS011;5404;42.656;23.336;2023-02-22T06:08:00;33.80;;;15.23;;
10705;SDS011;5404;42.656;23.336;2023-02-22T06:10:26;99.57;;;18.42;;
10705;SDS011;5404;42.656;23.336;2023-02-22T06:12:52;106.63;;;18.63;;
10705;SDS011;5404;42.656;23.336;2023-02-22T06:15:19;83.05;;;17.58;;
10705;SDS011;5404;42.656;23.336;2023-02-22T06:17:46;79.80;;;16.50;;
10705;SDS011;5404;42.656;23.336;2023-02-22T06:20:13;53.80;;;15.13;;
10705;SDS011;5404;42.656;23.336;2023-02-22T06:22:40;33.58;;;13.95;;
10705;SDS011;5404;42.656;23.336;2023-02-22T06:25:05;28.55;;;11.15;;
10705;SDS011;5404;42.656;23.336;2023-02-22T06:27:32;19.35;;;9.88;;
10705;SDS011;5404;42.656;23.336;2023-02-22T06:29:58;24.45;;;9.48;;
10705;SDS011;5404;42.656;23.336;2023-02-22T06:32:25;31.42;;;9.95;;
10705;SDS011;5404;42.656;23.336;2023-02-22T06:34:50;16.45;;;8.93;;
10705;SDS011;5404;42.656;23.336;2023-02-22T06:37:16;27.92;;;8.75;;
10705;SDS011;5404;42.656;23.336;2023-02-22T06:39:41;42.72;;;12.48;;
10705;SDS011;5404;42.656;23.336;2023-02-22T06:42:07;23.30;;;9.40;;
10705;SDS011;5404;42.656;23.336;2023-02-22T06:44:32;18.45;;;8.00;;
10705;SDS011;5404;42.656;23.336;2023-02-22T06:46:58;20.52;;;8.32;;
10705;SDS011;5404;42.656;23.336;2023-02-22T06:49:24;16.88;;;8.07;;
10705;SDS011;5404;42.656;23.336;2023-02-22T06:51:51;34.20;;;15.90;;
10705;SDS011;5404;42.656;23.336;2023-02-22T06:54:16;38.17;;;13.63;;
10705;SDS011;5404;42.656;23.336;2023-02-22T06:56:42;37.80;;;12.80;;
10705;SDS011;5404;42.656;23.336;2023-02-22T06:59:08;43.38;;;15.35;;
10705;SDS011;5404;42.656;23.336;2023-02-22T07:01:33;37.75;;;13.50;;
10705;SDS011;5404;42.656;23.336;2023-02-22T07:03:59;23.85;;;11.88;;
10705;SDS011;5404;42.656;23.336;2023-02-22T07:06:24;41.78;;;11.25;;
10705;SDS011;5404;42.656;23.336;2023-02-22T07:08:50;23.10;;;9.20;;
10705;SDS011;5404;42.656;23.336;2023-02-22T07:11:16;28.98;;;10.02;;
10705;SDS011;5404;42.656;23.336;2023-02-22T07:13:42;37.15;;;10.35;;
10705;SDS011;5404;42.656;23.336;2023-02-22T07:16:07;24.00;;;9.82;;
10705;SDS011;5404;42.656;23.336;2023-02-22T07:18:33;29.10;;;9.35;;
10705;SDS011;5404;42.656;23.336;2023-02-22T07:20:58;31.40;;;8.68;;
10705;SDS011;5404;42.656;23.336;2023-02-22T07:23:24;24.67;;;7.93;;
10705;SDS011;5404;42.656;23.336;2023-02-22T07:25:50;20.17;;;8.30;;
10705;SDS011;5404;42.656;23.336;2023-02-22T07:28:16;27.95;;;9.30;;
10705;SDS011;5404;42.656;23.336;2023-02-22T07:30:41;31.83;;;9.15;;
10705;SDS011;5404;42.656;23.336;2023-02-22T07:33:09;21.52;;;10.73;;
10705;SDS011;5404;42.656;23.336;2023-02-22T07:35:37;33.80;;;10.18;;
10705;SDS011;5404;42.656;23.336;2023-02-22T07:38:07;34.80;;;9.57;;
10705;SDS011;5404;42.656;23.336;2023-02-22T07:40:33;30.77;;;10.48;;
10705;SDS011;5404;42.656;23.336;2023-02-22T07:43:00;27.92;;;10.25;;
10705;SDS011;5404;42.656;23.336;2023-02-22T07:45:30;41.87;;;11.23;;
10705;SDS011;5404;42.656;23.336;2023-02-22T07:47:59;23.73;;;9.85;;
10705;SDS011;5404;42.656;23.336;2023-02-22T07:50:27;29.65;;;10.80;;
10705;SDS011;5404;42.656;23.336;2023-02-22T07:52:57;43.95;;;10.75;;
10705;SDS011;5404;42.656;23.336;2023-02-22T07:55:25;32.55;;;10.55;;
10705;SDS011;5404;42.656;23.336;2023-02-22T07:57:53;31.20;;;9.47;;
10705;SDS011;5404;42.656;23.336;2023-02-22T08:00:22;26.63;;;10.80;;
10705;SDS011;5404;42.656;23.336;2023-02-22T08:02:50;31.45;;;11.63;;
10705;SDS011;5404;42.656;23.336;2023-02-22T08:05:17;40.35;;;11.40;;
10705;SDS011;5404;42.656;23.336;2023-02-22T08:07:44;30.75;;;11.98;;
10705;SDS011;5404;42.656;23.336;2023-02-22T08:10:09;28.85;;;11.23;;
10705;SDS011;5404;42.656;23.336;2023-02-22T08:12:35;38.67;;;12.73;;
10705;SDS011;5404;42.656;23.336;2023-02-22T08:15:04;26.95;;;12.75;;
10705;SDS011;5404;42.656;23.336;2023-02-22T08:19:57;35.78;;;12.65;;
10705;SDS011;5404;42.656;23.336;2023-02-22T08:22:24;33.08;;;12.05;;
10705;SDS011;5404;42.656;23.336;2023-02-22T08:24:52;33.75;;;12.63;;
10705;SDS011;5404;42.656;23.336;2023-02-22T08:27:22;27.33;;;12.95;;
10705;SDS011;5404;42.656;23.336;2023-02-22T08:29:49;42.00;;;12.38;;
10705;SDS011;5404;42.656;23.336;2023-02-22T08:32:15;34.60;;;12.57;;
10705;SDS011;5404;42.656;23.336;2023-02-22T08:34:41;42.67;;;13.73;;
10705;SDS011;5404;42.656;23.336;2023-02-22T08:37:07;39.65;;;13.38;;
10705;SDS011;5404;42.656;23.336;2023-02-22T08:39:32;36.38;;;12.73;;
10705;SDS011;5404;42.656;23.336;2023-02-22T08:41:58;35.20;;;12.07;;
10705;SDS011;5404;42.656;23.336;2023-02-22T08:44:23;35.95;;;11.02;;
10705;SDS011;5404;42.656;23.336;2023-02-22T08:46:49;29.38;;;9.98;;
10705;SDS011;5404;42.656;23.336;2023-02-22T08:49:15;25.00;;;9.20;;
10705;SDS011;5404;42.656;23.336;2023-02-22T08:51:41;26.40;;;10.93;;
10705;SDS011;5404;42.656;23.336;2023-02-22T08:54:07;25.55;;;8.60;;
10705;SDS011;5404;42.656;23.336;2023-02-22T08:56:32;28.45;;;8.38;;
10705;SDS011;5404;42.656;23.336;2023-02-22T08:58:58;12.63;;;5.95;;
10705;SDS011;5404;42.656;23.336;2023-02-22T09:01:23;13.38;;;6.55;;
10705;SDS011;5404;42.656;23.336;2023-02-22T09:03:50;18.42;;;7.50;;
10705;SDS011;5404;42.656;23.336;2023-02-22T09:06:16;16.75;;;6.95;;
10705;SDS011;5404;42.656;23.336;2023-02-22T09:08:42;16.65;;;6.32;;
10705;SDS011;5404;42.656;23.336;2023-02-22T09:11:08;21.90;;;7.85;;
10705;SDS011;5404;42.656;23.336;2023-02-22T09:13:33;17.90;;;8.25;;
10705;SDS011;5404;42.656;23.336;2023-02-22T09:15:59;17.73;;;8.38;;
10705;SDS011;5404;42.656;23.336;2023-02-22T09:18:26;16.63;;;8.13;;
10705;SDS011;5404;42.656;23.336;2023-02-22T09:20:52;23.20;;;8.90;;
10705;SDS011;5404;42.656;23.336;2023-02-22T09:23:20;19.55;;;7.95;;
10705;SDS011;5404;42.656;23.336;2023-02-22T09:25:46;15.77;;;8.20;;
10705;SDS011;5404;42.656;23.336;2023-02-22T09:28:12;19.35;;;8.95;;
10705;SDS011;5404;42.656;23.336;2023-02-22T09:30:37;22.90;;;8.10;;
10705;SDS011;5404;42.656;23.336;2023-02-22T09:33:14;30.95;;;11.38;;
10705;SDS011;5404;42.656;23.336;2023-02-22T09:35:41;23.17;;;7.80;;
10705;SDS011;5404;42.656;23.336;2023-02-22T09:38:10;19.90;;;7.43;;
10705;SDS011;5404;42.656;23.336;2023-02-22T09:40:41;16.33;;;6.75;;
10705;SDS011;5404;42.656;23.336;2023-02-22T09:43:21;22.17;;;6.35;;
10705;SDS011;5404;42.656;23.336;2023-02-22T09:51:22;7.82;;;3.75;;
10705;SDS011;5404;42.656;23.336;2023-02-22T09:53:55;7.68;;;3.50;;
10705;SDS011;5404;42.656;23.336;2023-02-22T09:56:24;9.80;;;3.60;;
10705;SDS011;5404;42.656;23.336;2023-02-22T09:58:55;6.90;;;3.72;;
10705;SDS011;5404;42.656;23.336;2023-02-22T10:01:32;10.63;;;3.97;;
10705;SDS011;5404;42.656;23.336;2023-02-22T10:06:28;4.22;;;3.08;;
10705;SDS011;5404;42.656;23.336;2023-02-22T10:22:45;5.57;;;3.83;;
10705;SDS011;5404;42.656;23.336;2023-02-22T10:25:26;6.38;;;3.60;;
10705;SDS011;5404;42.656;23.336;2023-02-22T10:27:58;7.53;;;4.10;;
10705;SDS011;5404;42.656;23.336;2023-02-22T10:30:31;7.80;;;4.10;;
10705;SDS011;5404;42.656;23.336;2023-02-22T10:33:09;8.23;;;4.15;;
10705;SDS011;5404;42.656;23.336;2023-02-22T10:35:39;6.70;;;3.67;;
10705;SDS011;5404;42.656;23.336;2023-02-22T10:38:16;9.68;;;4.10;;
10705;SDS011;5404;42.656;23.336;2023-02-22T10:43:24;6.20;;;4.38;;
10705;SDS011;5404;42.656;23.336;2023-02-22T10:45:51;17.02;;;4.78;;
10705;SDS011;5404;42.656;23.336;2023-02-22T10:48:19;7.53;;;3.92;;
10705;SDS011;5404;42.656;23.336;2023-02-22T10:50:46;5.32;;;3.67;;
10705;SDS011;5404;42.656;23.336;2023-02-22T10:53:13;9.35;;;3.95;;
10705;SDS011;5404;42.656;23.336;2023-02-22T10:58:48;7.38;;;4.43;;
10705;SDS011;5404;42.656;23.336;2023-02-22T11:06:37;8.30;;;4.55;;
10705;SDS011;5404;42.656;23.336;2023-02-22T11:09:09;8.25;;;4.13;;
10705;SDS011;5404;42.656;23.336;2023-02-22T11:11:38;11.32;;;4.35;;
10705;SDS011;5404;42.656;23.336;2023-02-22T11:14:06;9.95;;;3.78;;
10705;SDS011;5404;42.656;23.336;2023-02-22T11:21:40;5.40;;;3.17;;
10705;SDS011;5404;42.656;23.336;2023-02-22T11:24:06;7.35;;;3.15;;
10705;SDS011;5404;42.656;23.336;2023-02-22T11:26:41;6.40;;;3.33;;
10705;SDS011;5404;42.656;23.336;2023-02-22T11:29:53;6.57;;;3.40;;
10705;SDS011;5404;42.656;23.336;2023-02-22T11:32:02;5.65;;;3.75;;
10705;SDS011;5404;42.656;23.336;2023-02-22T11:34:38;7.00;;;3.60;;
10705;SDS011;5404;42.656;23.336;2023-02-22T11:37:49;6.97;;;3.55;;
10705;SDS011;5404;42.656;23.336;2023-02-22T11:42:46;6.78;;;3.60;;
10705;SDS011;5404;42.656;23.336;2023-02-22T11:47:45;8.73;;;3.67;;
10705;SDS011;5404;42.656;23.336;2023-02-22T11:50:16;6.32;;;3.25;;
10705;SDS011;5404;42.656;23.336;2023-02-22T11:52:53;7.55;;;2.83;;
10705;SDS011;5404;42.656;23.336;2023-02-22T12:09:12;7.18;;;2.72;;
10705;SDS011;5404;42.656;23.336;2023-02-22T12:14:23;5.85;;;2.67;;
10705;SDS011;5404;42.656;23.336;2023-02-22T12:19:40;6.22;;;2.95;;
10705;SDS011;5404;42.656;23.336;2023-02-22T12:22:11;4.18;;;2.88;;
10705;SDS011;5404;42.656;23.336;2023-02-22T12:24:46;8.63;;;2.63;;
10705;SDS011;5404;42.656;23.336;2023-02-22T12:27:24;3.13;;;2.10;;
10705;SDS011;5404;42.656;23.336;2023-02-22T12:30:04;6.70;;;2.88;;
10705;SDS011;5404;42.656;23.336;2023-02-22T12:32:41;4.88;;;3.20;;
10705;SDS011;5404;42.656;23.336;2023-02-22T12:35:26;9.00;;;2.90;;
10705;SDS011;5404;42.656;23.336;2023-02-22T12:41:04;9.88;;;3.38;;
10705;SDS011;5404;42.656;23.336;2023-02-22T12:43:38;7.32;;;2.90;;
10705;SDS011;5404;42.656;23.336;2023-02-22T12:51:26;4.63;;;2.80;;
10705;SDS011;5404;42.656;23.336;2023-02-22T12:57:07;8.23;;;3.10;;
10705;SDS011;5404;42.656;23.336;2023-02-22T13:02:13;12.18;;;3.10;;
10705;SDS011;5404;42.656;23.336;2023-02-22T13:04:44;4.55;;;2.80;;
10705;SDS011;5404;42.656;23.336;2023-02-22T13:18:14;6.10;;;3.50;;
10705;SDS011;5404;42.656;23.336;2023-02-22T13:20:57;6.07;;;3.05;;
10705;SDS011;5404;42.656;23.336;2023-02-22T13:23:50;9.30;;;3.42;;
10705;SDS011;5404;42.656;23.336;2023-02-22T13:26:39;8.52;;;4.55;;
10705;SDS011;5404;42.656;23.336;2023-02-22T13:48:50;6.85;;;3.25;;
10705;SDS011;5404;42.656;23.336;2023-02-22T13:53:24;7.05;;;3.38;;
10705;SDS011;5404;42.656;23.336;2023-02-22T13:55:54;6.70;;;3.22;;
10705;SDS011;5404;42.656;23.336;2023-02-22T13:58:23;9.02;;;3.30;;
10705;SDS011;5404;42.656;23.336;2023-02-22T14:00:53;4.40;;;3.45;;
10705;SDS011;5404;42.656;23.336;2023-02-22T14:05:51;10.32;;;3.65;;
10705;SDS011;5404;42.656;23.336;2023-02-22T14:13:13;8.90;;;3.50;;
10705;SDS011;5404;42.656;23.336;2023-02-22T14:16:14;5.65;;;3.53;;
10705;SDS011;5404;42.656;23.336;2023-02-22T14:18:36;6.25;;;3.75;;
10705;SDS011;5404;42.656;23.336;2023-02-22T14:21:07;10.05;;;3.80;;
10705;SDS011;5404;42.656;23.336;2023-02-22T14:29:01;7.10;;;4.28;;
10705;SDS011;5404;42.656;23.336;2023-02-22T14:31:31;6.93;;;4.13;;
10705;SDS011;5404;42.656;23.336;2023-02-22T14:34:00;11.90;;;4.25;;
10705;SDS011;5404;42.656;23.336;2023-02-22T14:42:01;7.70;;;3.65;;
10705;SDS011;5404;42.656;23.336;2023-02-22T14:44:39;7.47;;;4.00;;
10705;SDS011;5404;42.656;23.336;2023-02-22T14:47:14;8.32;;;4.55;;
10705;SDS011;5404;42.656;23.336;2023-02-22T14:49:45;6.63;;;3.80;;
10705;SDS011;5404;42.656;23.336;2023-02-22T14:52:17;17.00;;;3.97;;
10705;SDS011;5404;42.656;23.336;2023-02-22T14:54:51;7.13;;;4.03;;
10705;SDS011;5404;42.656;23.336;2023-02-22T15:00:23;13.82;;;4.60;;
10705;SDS011;5404;42.656;23.336;2023-02-22T15:02:57;11.80;;;4.60;;
10705;SDS011;5404;42.656;23.336;2023-02-22T15:05:25;10.30;;;4.95;;
10705;SDS011;5404;42.656;23.336;2023-02-22T15:10:46;9.13;;;3.92;;
10705;SDS011;5404;42.656;23.336;2023-02-22T15:13:18;17.67;;;4.32;;
10705;SDS011;5404;42.656;23.336;2023-02-22T15:15:53;7.68;;;3.90;;
10705;SDS011;5404;42.656;23.336;2023-02-22T15:20:57;9.13;;;4.10;;
10705;SDS011;5404;42.656;23.336;2023-02-22T15:24:17;9.75;;;3.65;;
10705;SDS011;5404;42.656;23.336;2023-02-22T15:26:20;8.88;;;4.38;;
10705;SDS011;5404;42.656;23.336;2023-02-22T15:28:52;9.55;;;4.65;;
10705;SDS011;5404;42.656;23.336;2023-02-22T15:31:23;11.40;;;5.05;;
10705;SDS011;5404;42.656;23.336;2023-02-22T15:33:55;8.65;;;4.57;;
10705;SDS011;5404;42.656;23.336;2023-02-22T15:36:26;14.07;;;5.30;;
10705;SDS011;5404;42.656;23.336;2023-02-22T15:38:54;16.67;;;5.68;;
10705;SDS011;5404;42.656;23.336;2023-02-22T15:41:28;14.23;;;5.13;;
10705;SDS011;5404;42.656;23.336;2023-02-22T15:43:56;13.02;;;5.25;;
10705;SDS011;5404;42.656;23.336;2023-02-22T15:46:23;8.05;;;5.07;;
10705;SDS011;5404;42.656;23.336;2023-02-22T15:49:16;15.02;;;5.72;;
10705;SDS011;5404;42.656;23.336;2023-02-22T15:51:43;10.48;;;5.50;;
10705;SDS011;5404;42.656;23.336;2023-02-22T15:54:13;11.00;;;5.53;;
10705;SDS011;5404;42.656;23.336;2023-02-22T15:56:40;7.65;;;4.80;;
10705;SDS011;5404;42.656;23.336;2023-02-22T15:59:15;15.13;;;5.85;;
10705;SDS011;5404;42.656;23.336;2023-02-22T16:01:47;10.15;;;6.25;;
10705;SDS011;5404;42.656;23.336;2023-02-22T16:04:20;20.70;;;6.53;;
10705;SDS011;5404;42.656;23.336;2023-02-22T16:06:49;20.08;;;8.02;;
10705;SDS011;5404;42.656;23.336;2023-02-22T16:09:19;34.67;;;12.52;;
10705;SDS011;5404;42.656;23.336;2023-02-22T16:11:50;25.65;;;11.32;;
10705;SDS011;5404;42.656;23.336;2023-02-22T16:17:18;29.90;;;13.50;;
10705;SDS011;5404;42.656;23.336;2023-02-22T16:20:42;30.52;;;10.50;;
10705;SDS011;5404;42.656;23.336;2023-02-22T16:22:45;31.92;;;12.18;;
10705;SDS011;5404;42.656;23.336;2023-02-22T16:27:44;21.05;;;10.93;;
10705;SDS011;5404;42.656;23.336;2023-02-22T16:30:33;17.67;;;8.32;;
10705;SDS011;5404;42.656;23.336;2023-02-22T16:33:04;26.17;;;8.65;;
10705;SDS011;5404;42.656;23.336;2023-02-22T16:35:37;26.05;;;9.07;;
10705;SDS011;5404;42.656;23.336;2023-02-22T16:38:04;22.48;;;8.85;;
10705;SDS011;5404;42.656;23.336;2023-02-22T16:40:34;23.02;;;9.02;;
10705;SDS011;5404;42.656;23.336;2023-02-22T16:43:12;19.52;;;8.60;;
10705;SDS011;5404;42.656;23.336;2023-02-22T16:45:41;24.70;;;9.60;;
10705;SDS011;5404;42.656;23.336;2023-02-22T16:48:20;29.63;;;10.88;;
10705;SDS011;5404;42.656;23.336;2023-02-22T16:50:48;24.05;;;10.15;;
10705;SDS011;5404;42.656;23.336;2023-02-22T16:53:17;28.65;;;12.20;;
10705;SDS011;5404;42.656;23.336;2023-02-22T16:55:46;27.25;;;12.05;;
10705;SDS011;5404;42.656;23.336;2023-02-22T16:58:13;28.98;;;13.32;;
10705;SDS011;5404;42.656;23.336;2023-02-22T17:00:41;36.97;;;16.40;;
10705;SDS011;5404;42.656;23.336;2023-02-22T17:03:14;31.30;;;15.80;;
10705;SDS011;5404;42.656;23.336;2023-02-22T17:05:44;23.98;;;11.00;;
10705;SDS011;5404;42.656;23.336;2023-02-22T17:08:12;20.75;;;9.70;;
10705;SDS011;5404;42.656;23.336;2023-02-22T17:10:40;20.60;;;10.23;;
10705;SDS011;5404;42.656;23.336;2023-02-22T17:13:06;30.27;;;9.55;;
10705;SDS011;5404;42.656;23.336;2023-02-22T17:15:33;29.75;;;10.00;;
10705;SDS011;5404;42.656;23.336;2023-02-22T17:18:00;22.90;;;10.50;;
10705;SDS011;5404;42.656;23.336;2023-02-22T17:20:30;31.05;;;10.85;;
10705;SDS011;5404;42.656;23.336;2023-02-22T17:22:59;24.77;;;9.73;;
10705;SDS011;5404;42.656;23.336;2023-02-22T17:25:28;29.02;;;10.38;;
10705;SDS011;5404;42.656;23.336;2023-02-22T17:27:56;36.10;;;9.13;;
10705;SDS011;5404;42.656;23.336;2023-02-22T17:30:22;24.98;;;8.90;;
10705;SDS011;5404;42.656;23.336;2023-02-22T17:32:48;26.90;;;10.25;;
10705;SDS011;5404;42.656;23.336;2023-02-22T17:35:16;24.27;;;8.32;;
10705;SDS011;5404;42.656;23.336;2023-02-22T17:37:50;23.23;;;8.82;;
10705;SDS011;5404;42.656;23.336;2023-02-22T17:40:16;20.53;;;8.97;;
10705;SDS011;5404;42.656;23.336;2023-02-22T17:42:42;25.27;;;8.60;;
10705;SDS011;5404;42.656;23.336;2023-02-22T17:45:08;34.83;;;9.02;;
10705;SDS011;5404;42.656;23.336;2023-02-22T17:47:38;28.30;;;9.77;;
10705;SDS011;5404;42.656;23.336;2023-02-22T17:50:08;24.35;;;9.60;;
10705;SDS011;5404;42.656;23.336;2023-02-22T17:52:34;17.73;;;8.80;;
10705;SDS011;5404;42.656;23.336;2023-02-22T17:55:00;22.73;;;8.77;;